Time;durP1;ratioP1;P1;durP2;ratioP2;P2;SDS_P1;SDS_P2;PMS_P1;PMS_P2;Temp;Humidity;BMP_temperature;BMP_pressure;BME280_temperature;BME280_humidity;BME280_pressure;Samples;Min_cycle;Max_cycle;Signal;HPM_P1;HPM_P2
2022/12/21 00:01:38;;;;;;;5.00;2.20;;;10.20;99.90;;;;;;5053589;28;20426;-81
2022/12/21 00:04:04;;;;;;;4.60;2.47;;;10.20;99.90;;;;;;5037276;28;20668;-81
2022/12/21 00:06:35;;;;;;;2.30;1.70;;;10.00;99.90;;;;;;5053972;28;20226;-78
2022/12/21 00:09:03;;;;;;;2.57;2.20;;;10.00;99.90;;;;;;5037932;28;20432;-79
2022/12/21 00:11:30;;;;;;;2.70;2.00;;;10.00;99.90;;;;;;5072116;28;20460;-79
2022/12/21 00:13:57;;;;;;;2.27;1.90;;;9.90;99.90;;;;;;5037401;28;20441;-81
2022/12/21 00:16:26;;;;;;;2.97;2.40;;;10.00;99.90;;;;;;5054149;28;20926;-80
2022/12/21 00:18:52;;;;;;;3.90;2.27;;;9.80;99.90;;;;;;5071828;28;20425;-80
2022/12/21 00:21:20;;;;;;;4.10;1.60;;;9.80;99.90;;;;;;5053816;28;20425;-79
2022/12/21 00:23:47;;;;;;;4.07;2.07;;;9.80;99.90;;;;;;5037335;28;20456;-79
2022/12/21 00:26:15;;;;;;;2.60;2.33;;;9.70;99.90;;;;;;5053960;28;20461;-81
2022/12/21 00:28:41;;;;;;;2.70;1.93;;;9.60;99.90;;;;;;5071887;28;20449;-81
2022/12/21 00:31:09;;;;;;;2.63;1.77;;;9.80;99.90;;;;;;5037585;28;20462;-81
2022/12/21 00:33:35;;;;;;;4.03;2.10;;;9.70;99.90;;;;;;5053427;28;20207;-82
2022/12/21 00:36:01;;;;;;;6.27;1.70;;;9.70;99.90;;;;;;5071058;28;20962;-81
2022/12/21 00:38:27;;;;;;;3.37;2.10;;;9.90;99.90;;;;;;5053376;28;20506;-82
2022/12/21 00:40:58;;;;;;;3.00;1.70;;;9.80;99.90;;;;;;5071165;28;20990;-80
2022/12/21 00:43:24;;;;;;;2.57;1.70;;;9.80;99.90;;;;;;5070765;28;20472;-77
2022/12/21 00:45:50;;;;;;;5.70;1.70;;;9.80;99.90;;;;;;5052879;28;20509;-78
2022/12/21 00:48:15;;;;;;;2.00;1.33;;;9.90;99.90;;;;;;5036434;28;21096;-78
2022/12/21 00:50:41;;;;;;;3.37;1.63;;;9.80;99.90;;;;;;5036412;28;20191;-77
2022/12/21 00:53:08;;;;;;;3.57;2.10;;;9.90;99.90;;;;;;5052917;28;20291;-78
2022/12/21 00:55:34;;;;;;;2.07;1.87;;;9.80;99.90;;;;;;5036848;28;20981;-78
2022/12/21 00:58:00;;;;;;;4.30;2.10;;;9.70;99.90;;;;;;5070975;28;20460;-78
2022/12/21 01:00:27;;;;;;;3.70;2.27;;;9.70;99.90;;;;;;5052319;28;20790;-79
2022/12/21 01:02:52;;;;;;;3.43;1.90;;;9.60;99.90;;;;;;5070410;28;20937;-77
2022/12/21 01:05:18;;;;;;;9.07;2.20;;;9.90;99.90;;;;;;5053036;28;20459;-77
2022/12/21 01:07:44;;;;;;;5.10;1.93;;;9.80;99.90;;;;;;5070962;28;20189;-77
2022/12/21 01:10:10;;;;;;;2.43;1.43;;;9.90;99.90;;;;;;5070847;28;20534;-78
2022/12/21 01:12:36;;;;;;;1.70;1.60;;;9.90;99.90;;;;;;5070833;28;20639;-78
2022/12/21 01:15:03;;;;;;;3.00;1.73;;;9.90;99.90;;;;;;5036340;28;20468;-77
2022/12/21 01:17:28;;;;;;;1.73;1.63;;;9.90;99.90;;;;;;5036635;28;20668;-77
2022/12/21 01:19:54;;;;;;;5.50;2.03;;;10.00;99.90;;;;;;5052857;28;20440;-77
2022/12/21 01:22:19;;;;;;;3.43;1.77;;;10.00;99.90;;;;;;5070526;28;20202;-77
2022/12/21 01:24:46;;;;;;;1.97;1.70;;;10.00;99.90;;;;;;5035748;28;20673;-77
2022/12/21 01:27:12;;;;;;;3.37;2.00;;;9.90;99.90;;;;;;5069864;28;20194;-76
2022/12/21 01:29:38;;;;;;;4.60;1.80;;;9.80;99.90;;;;;;5070186;28;20413;-77
2022/12/21 01:32:04;;;;;;;1.80;1.53;;;9.90;99.90;;;;;;5070283;28;20649;-79
2022/12/21 01:34:29;;;;;;;1.73;1.50;;;9.90;99.90;;;;;;5051852;28;20256;-79
2022/12/21 01:36:56;;;;;;;3.80;1.73;;;9.90;99.90;;;;;;5035970;28;20520;-80
2022/12/21 01:39:22;;;;;;;6.47;1.60;;;9.90;99.90;;;;;;5052091;28;20463;-80
2022/12/21 01:41:47;;;;;;;3.43;1.50;;;10.00;99.90;;;;;;5070439;28;20216;-80
2022/12/21 01:44:47;;;;;;;5.13;1.40;;;10.30;99.90;;;;;;5036050;28;20239;-82
2022/12/21 01:47:18;;;;;;;3.43;1.70;;;10.20;99.90;;;;;;5072079;28;20187;-81
2022/12/21 01:49:50;;;;;;;2.13;1.40;;;10.20;99.90;;;;;;5053226;28;20781;-81
2022/12/21 01:52:17;;;;;;;2.40;1.40;;;10.30;99.90;;;;;;5052749;28;20485;-80
2022/12/21 01:54:50;;;;;;;3.00;1.57;;;10.20;99.90;;;;;;5035193;28;20444;-79
2022/12/21 01:57:17;;;;;;;5.43;1.80;;;10.20;99.90;;;;;;5051879;28;20408;-80
2022/12/21 01:59:50;;;;;;;2.47;1.73;;;10.10;99.90;;;;;;5051656;28;20423;-79
2022/12/21 02:02:25;;;;;;;4.30;1.40;;;10.10;99.90;;;;;;5069250;28;20417;-79
2022/12/21 02:04:52;;;;;;;2.30;1.73;;;10.10;99.90;;;;;;5051697;28;20418;-80
2022/12/21 02:07:20;;;;;;;3.93;1.67;;;10.10;99.90;;;;;;5035202;28;20928;-80
2022/12/21 02:09:46;;;;;;;2.90;1.43;;;10.00;99.90;;;;;;5035041;28;20464;-80
2022/12/21 02:12:16;;;;;;;1.70;1.60;;;10.10;99.90;;;;;;5069722;28;20429;-77
2022/12/21 02:14:44;;;;;;;1.83;1.50;;;10.10;99.90;;;;;;5069690;28;20556;-78
2022/12/21 02:17:16;;;;;;;4.73;1.73;;;10.10;99.90;;;;;;5069678;28;20420;-80
2022/12/21 02:20:19;;;;;;;1.87;1.30;;;10.10;99.90;;;;;;5053451;28;20405;-80
2022/12/21 02:23:16;;;;;;;2.30;1.10;;;10.40;99.90;;;;;;5055326;28;20443;-79
2022/12/21 02:26:19;;;;;;;1.50;1.30;;;10.30;99.90;;;;;;5073310;28;20508;-79
2022/12/21 02:29:20;;;;;;;3.93;1.50;;;10.40;99.90;;;;;;5055863;28;20510;-82
2022/12/21 02:32:30;;;;;;;1.63;1.20;;;10.30;99.90;;;;;;5055580;28;20473;-79
2022/12/21 02:35:30;;;;;;;2.40;1.77;;;10.30;99.90;;;;;;5000212;28;20469;-78
2022/12/21 02:38:26;;;;;;;2.97;1.17;;;10.30;99.90;;;;;;5072996;28;20405;-79
2022/12/21 02:40:59;;;;;;;2.50;1.30;;;10.40;99.90;;;;;;5072791;28;20904;-79
2022/12/21 02:46:53;;;;;;;4.70;1.60;;;10.40;99.90;;;;;;5041694;28;20946;-78
2022/12/21 02:49:52;;;;;;;4.07;1.60;;;10.30;99.90;;;;;;5073126;28;20446;-77
2022/12/21 02:52:45;;;;;;;4.97;1.27;;;10.30;99.90;;;;;;5040840;28;20466;-78
2022/12/21 02:55:13;;;;;;;2.10;1.53;;;10.30;99.90;;;;;;5072387;28;20501;-76
2022/12/21 02:57:41;;;;;;;2.37;1.70;;;10.20;99.90;;;;;;5054996;28;20481;-77
2022/12/21 03:00:11;;;;;;;1.20;1.10;;;10.10;99.90;;;;;;5073082;28;20833;-77
2022/12/21 03:02:42;;;;;;;2.47;1.30;;;10.20;99.90;;;;;;5055016;28;20898;-77
2022/12/21 03:05:39;;;;;;;2.27;1.37;;;10.20;99.90;;;;;;5072760;28;20450;-77
2022/12/21 03:08:43;;;;;;;2.20;0.87;;;10.20;99.90;;;;;;5054591;28;20775;-77
2022/12/21 03:11:09;;;;;;;4.20;1.60;;;10.30;99.90;;;;;;5072669;28;20431;-77
2022/12/21 03:13:43;;;;;;;2.10;1.20;;;10.30;99.90;;;;;;5072474;28;20441;-78
2022/12/21 03:16:39;;;;;;;3.70;1.20;;;10.30;99.90;;;;;;5072480;28;20460;-77
2022/12/21 03:19:10;;;;;;;2.93;0.90;;;10.30;99.90;;;;;;5046091;28;20552;-77
2022/12/21 03:21:47;;;;;;;1.73;1.10;;;10.30;99.90;;;;;;5072598;28;20416;-77
2022/12/21 03:24:19;;;;;;;2.00;1.30;;;10.20;99.90;;;;;;5072099;28;20513;-78
2022/12/21 03:27:03;;;;;;;1.30;1.20;;;10.20;99.90;;;;;;5072238;28;20826;-77
2022/12/21 03:29:36;;;;;;;3.27;1.37;;;10.30;99.90;;;;;;5072069;28;20421;-78
2022/12/21 03:32:07;;;;;;;1.87;1.20;;;10.30;99.90;;;;;;5071173;28;20986;-77
2022/12/21 03:34:38;;;;;;;2.30;1.37;;;10.40;99.90;;;;;;5072071;28;20449;-76
2022/12/21 03:37:16;;;;;;;2.27;1.10;;;10.40;99.90;;;;;;5072434;28;20413;-77
2022/12/21 03:39:45;;;;;;;1.13;1.03;;;10.30;99.90;;;;;;5053639;28;20427;-78
2022/12/21 03:42:20;;;;;;;2.47;1.30;;;10.30;99.90;;;;;;5053566;28;20417;-76
2022/12/21 03:45:11;;;;;;;2.70;0.90;;;10.30;99.90;;;;;;5071880;28;20405;-77
2022/12/21 03:47:59;;;;;;;1.27;1.10;;;10.40;99.90;;;;;;5072039;28;20938;-78
2022/12/21 03:50:30;;;;;;;3.80;1.30;;;10.50;99.90;;;;;;5072145;28;21060;-77
2022/12/21 03:53:24;;;;;;;3.07;1.40;;;10.60;99.90;;;;;;5053747;28;20504;-78
2022/12/21 03:55:51;;;;;;;1.63;0.87;;;10.50;99.90;;;;;;5071700;28;20451;-77
2022/12/21 03:58:17;;;;;;;1.33;1.20;;;10.40;99.90;;;;;;5054637;28;20836;-77
2022/12/21 04:01:06;;;;;;;2.80;1.27;;;10.50;99.90;;;;;;5054122;28;20416;-77
2022/12/21 04:03:37;;;;;;;1.10;1.00;;;10.40;99.90;;;;;;5071226;28;20205;-77
2022/12/21 04:06:08;;;;;;;1.63;1.00;;;10.40;99.90;;;;;;5071334;28;20766;-76
2022/12/21 04:08:35;;;;;;;3.30;1.10;;;10.40;99.90;;;;;;5053734;28;21048;-76
2022/12/21 04:11:01;;;;;;;1.77;0.97;;;10.40;99.90;;;;;;5070611;28;20423;-77
2022/12/21 04:13:26;;;;;;;1.77;0.93;;;10.40;99.90;;;;;;5035942;28;20457;-77
2022/12/21 04:16:04;;;;;;;2.30;1.10;;;10.50;99.90;;;;;;5035852;28;20208;-78
2022/12/21 04:21:14;;;;;;;1.50;1.20;;;10.40;99.90;;;;;;5056145;28;20790;-77
2022/12/21 04:29:08;;;;;;;2.40;1.00;;;10.30;99.90;;;;;;5071524;28;20421;-78
2022/12/21 04:31:34;;;;;;;4.07;1.20;;;10.50;99.90;;;;;;5071876;28;20418;-79
2022/12/21 04:34:00;;;;;;;1.20;1.10;;;10.50;99.90;;;;;;5070970;28;20223;-76
2022/12/21 04:39:09;;;;;;;5.97;1.53;;;10.50;99.90;;;;;;5056549;28;20170;-77
2022/12/21 04:41:35;;;;;;;1.00;0.90;;;10.40;99.90;;;;;;5055951;28;20429;-78
2022/12/21 04:44:01;;;;;;;3.80;1.00;;;10.40;99.90;;;;;;5077229;28;20196;-77
2022/12/21 04:46:27;;;;;;;1.90;0.90;;;10.40;99.90;;;;;;5075969;28;20184;-77
2022/12/21 04:48:52;;;;;;;3.50;1.00;;;10.30;99.90;;;;;;5041948;28;20276;-77
2022/12/21 04:51:23;;;;;;;9.10;1.50;;;10.40;99.90;;;;;;5040046;28;20443;-76
2022/12/21 04:53:50;;;;;;;3.23;1.00;;;10.40;99.90;;;;;;5056118;28;20756;-77
2022/12/21 04:56:16;;;;;;;2.27;1.07;;;10.50;99.90;;;;;;5073310;28;20556;-77
2022/12/21 04:58:44;;;;;;;3.53;0.90;;;10.30;99.90;;;;;;5074657;28;20547;-78
2022/12/21 05:01:15;;;;;;;3.77;1.43;;;10.30;99.90;;;;;;5075799;28;20421;-78
2022/12/21 05:03:40;;;;;;;6.83;1.13;;;10.40;99.90;;;;;;5057153;28;21190;-78
2022/12/21 05:06:07;;;;;;;1.30;1.10;;;10.40;99.90;;;;;;5076198;28;20475;-78
2022/12/21 05:08:33;;;;;;;2.03;1.43;;;10.40;99.90;;;;;;5055963;28;20186;-77
2022/12/21 05:11:20;;;;;;;3.33;1.10;;;10.40;99.90;;;;;;5055731;28;20513;-77
2022/12/21 05:13:47;;;;;;;1.73;1.10;;;10.50;99.90;;;;;;5071196;28;20218;-78
2022/12/21 05:16:15;;;;;;;1.40;1.30;;;10.50;99.90;;;;;;5070653;28;20466;-77
2022/12/21 05:18:41;;;;;;;2.20;1.23;;;10.60;99.90;;;;;;5071047;28;20409;-77
2022/12/21 05:21:07;;;;;;;1.43;1.13;;;10.50;99.90;;;;;;5071300;28;20410;-78
2022/12/21 05:23:33;;;;;;;0.90;0.77;;;10.30;99.90;;;;;;5053629;28;20235;-78
2022/12/21 05:26:01;;;;;;;1.73;1.30;;;10.40;99.90;;;;;;5072532;28;20188;-78
2022/12/21 05:28:27;;;;;;;1.73;0.90;;;10.40;99.90;;;;;;5040292;28;20448;-78
2022/12/21 05:30:53;;;;;;;5.43;1.20;;;10.50;99.90;;;;;;5054793;28;20434;-78
2022/12/21 05:33:19;;;;;;;1.93;1.40;;;10.70;99.90;;;;;;5038286;28;20454;-78
2022/12/21 05:35:45;;;;;;;3.67;0.90;;;10.40;99.90;;;;;;5054626;28;20461;-77
2022/12/21 05:38:11;;;;;;;3.57;1.13;;;10.40;99.90;;;;;;5072096;28;20420;-77
2022/12/21 05:40:36;;;;;;;2.40;1.13;;;10.40;99.90;;;;;;5035392;28;20865;-77
2022/12/21 05:43:03;;;;;;;2.40;1.17;;;10.40;99.90;;;;;;5069140;28;20201;-77
2022/12/21 05:45:29;;;;;;;2.90;1.47;;;10.40;99.90;;;;;;5069604;28;20181;-77
2022/12/21 05:47:55;;;;;;;1.40;1.00;;;10.50;99.90;;;;;;5035284;28;20936;-76
2022/12/21 05:50:21;;;;;;;2.10;1.10;;;10.40;99.90;;;;;;5069896;28;21003;-78
2022/12/21 05:52:47;;;;;;;2.50;0.90;;;10.40;99.90;;;;;;5069480;28;20504;-77
2022/12/21 05:55:13;;;;;;;1.53;1.10;;;10.40;99.90;;;;;;5069239;28;20489;-77
2022/12/21 05:57:38;;;;;;;1.60;1.00;;;10.40;99.90;;;;;;5070213;28;20178;-77
2022/12/21 06:00:05;;;;;;;2.50;0.83;;;10.40;99.90;;;;;;5069888;28;20195;-77
2022/12/21 06:02:31;;;;;;;1.03;0.93;;;10.30;99.90;;;;;;5052113;28;20207;-77
2022/12/21 06:04:56;;;;;;;1.03;0.93;;;10.40;99.90;;;;;;5036081;28;20458;-78
2022/12/21 06:07:22;;;;;;;1.97;1.30;;;10.40;99.90;;;;;;5051971;28;20434;-77
2022/12/21 06:09:48;;;;;;;3.10;1.00;;;10.30;99.90;;;;;;5034795;28;20235;-78
2022/12/21 06:12:13;;;;;;;1.40;1.00;;;10.30;99.90;;;;;;5051975;28;20195;-79
2022/12/21 06:14:39;;;;;;;3.00;1.00;;;10.30;99.90;;;;;;5051847;28;20188;-77
2022/12/21 06:17:04;;;;;;;2.00;1.30;;;10.30;99.90;;;;;;5051635;28;20831;-78
2022/12/21 06:19:30;;;;;;;2.23;1.17;;;10.30;99.90;;;;;;5051647;28;20188;-77
2022/12/21 06:21:55;;;;;;;1.63;1.30;;;10.20;99.90;;;;;;5069717;28;20177;-78
2022/12/21 06:24:21;;;;;;;2.70;1.10;;;10.40;99.90;;;;;;5034426;28;20709;-78
2022/12/21 06:26:47;;;;;;;1.17;1.07;;;10.40;99.90;;;;;;5068639;28;20248;-78
2022/12/21 06:29:13;;;;;;;1.57;0.80;;;10.40;99.90;;;;;;5050867;28;20265;-77
2022/12/21 06:31:38;;;;;;;2.70;0.90;;;10.40;99.90;;;;;;5050805;28;20194;-78
2022/12/21 06:34:04;;;;;;;1.83;1.20;;;10.40;99.90;;;;;;5068641;28;20321;-78
2022/12/21 06:36:31;;;;;;;2.50;1.20;;;10.30;99.90;;;;;;5068737;28;20310;-78
2022/12/21 06:38:57;;;;;;;1.67;0.80;;;10.30;99.90;;;;;;5068837;28;20187;-77
2022/12/21 06:41:23;;;;;;;2.13;1.17;;;10.30;99.90;;;;;;5050340;28;21067;-78
2022/12/21 06:43:50;;;;;;;2.30;1.20;;;10.30;99.90;;;;;;5068194;28;20203;-77
2022/12/21 06:46:17;;;;;;;1.07;0.97;;;10.30;99.90;;;;;;5049829;28;21137;-77
2022/12/21 06:48:43;;;;;;;4.20;1.50;;;10.20;99.90;;;;;;5049380;28;20436;-77
2022/12/21 06:51:17;;;;;;;2.43;1.53;;;10.20;99.90;;;;;;5049766;28;20458;-78
2022/12/21 06:53:45;;;;;;;4.60;1.33;;;10.10;99.90;;;;;;5049321;28;20456;-77
2022/12/21 06:56:13;;;;;;;7.33;1.80;;;10.10;99.90;;;;;;5049936;28;20569;-78
2022/12/21 06:58:39;;;;;;;3.73;1.43;;;10.10;99.90;;;;;;5067617;28;20424;-78
2022/12/21 07:01:18;;;;;;;3.50;1.37;;;10.10;99.90;;;;;;5068187;28;20519;-78
2022/12/21 07:03:44;;;;;;;2.30;1.40;;;10.00;99.90;;;;;;5067718;28;20480;-77
2022/12/21 07:06:11;;;;;;;2.20;1.57;;;10.00;99.90;;;;;;5070428;28;20438;-78
2022/12/21 07:08:37;;;;;;;3.83;1.63;;;10.00;99.90;;;;;;5071217;28;21116;-77
2022/12/21 07:11:08;;;;;;;1.90;1.47;;;10.10;99.90;;;;;;5053299;28;20436;-78
2022/12/21 07:13:35;;;;;;;1.53;1.43;;;9.90;99.90;;;;;;5070909;28;20589;-77
2022/12/21 07:16:01;;;;;;;1.77;1.53;;;9.80;99.90;;;;;;5052743;28;20465;-77
2022/12/21 07:18:27;;;;;;;3.70;1.80;;;10.00;99.90;;;;;;5070847;28;20521;-77
2022/12/21 07:21:02;;;;;;;2.13;1.53;;;9.80;99.90;;;;;;5053017;28;20241;-77
2022/12/21 07:23:28;;;;;;;2.40;1.70;;;9.90;99.90;;;;;;5070978;28;20191;-78
2022/12/21 07:25:54;;;;;;;1.93;1.50;;;9.80;99.90;;;;;;5071061;28;20425;-77
2022/12/21 07:28:24;;;;;;;4.20;2.13;;;9.80;99.90;;;;;;5035506;28;20425;-76
2022/12/21 07:30:50;;;;;;;1.93;1.77;;;9.90;99.90;;;;;;5052601;28;20191;-77
2022/12/21 07:33:16;;;;;;;3.40;2.20;;;9.70;99.90;;;;;;5070469;28;20456;-75
2022/12/21 07:35:42;;;;;;;1.87;1.77;;;9.70;99.90;;;;;;5070680;28;20491;-78
2022/12/21 07:38:08;;;;;;;2.50;1.97;;;9.70;99.90;;;;;;5071191;28;20421;-77
2022/12/21 07:40:34;;;;;;;4.93;1.77;;;9.80;99.90;;;;;;5052544;28;20195;-76
2022/12/21 07:43:00;;;;;;;2.10;1.90;;;9.70;99.90;;;;;;5071087;28;20434;-77
2022/12/21 07:45:26;;;;;;;2.37;1.80;;;9.70;99.90;;;;;;5053129;28;20191;-79
2022/12/21 07:47:55;;;;;;;8.43;2.00;;;9.60;99.90;;;;;;5036401;28;20191;-77
2022/12/21 07:50:21;;;;;;;5.00;1.87;;;9.60;99.90;;;;;;5052586;28;20425;-77
2022/12/21 07:52:46;;;;;;;2.03;1.87;;;9.70;99.90;;;;;;5070318;28;20536;-76
2022/12/21 07:55:12;;;;;;;3.37;2.10;;;9.60;99.90;;;;;;5052609;28;20211;-77
2022/12/21 07:57:37;;;;;;;1.60;1.50;;;9.60;99.90;;;;;;5053021;28;20290;-77
2022/12/21 08:00:04;;;;;;;2.00;1.80;;;9.80;99.90;;;;;;5036144;28;20182;-77
2022/12/21 08:02:29;;;;;;;2.70;1.57;;;9.60;99.90;;;;;;5035631;28;20207;-77
2022/12/21 08:04:55;;;;;;;4.50;2.60;;;9.70;99.90;;;;;;5052152;28;20827;-77
2022/12/21 08:07:21;;;;;;;2.83;2.53;;;9.70;99.90;;;;;;5052563;28;20176;-77
2022/12/21 08:09:46;;;;;;;2.43;2.17;;;9.80;99.90;;;;;;5070163;28;20180;-78
2022/12/21 08:12:12;;;;;;;2.00;1.80;;;9.60;99.90;;;;;;5035883;28;20181;-77
2022/12/21 08:14:37;;;;;;;3.10;1.67;;;9.70;99.90;;;;;;5052385;28;20271;-76
2022/12/21 08:17:03;;;;;;;1.90;1.70;;;9.70;99.90;;;;;;5051494;28;20219;-77
2022/12/21 08:19:28;;;;;;;2.60;2.20;;;9.70;99.90;;;;;;5052523;28;20198;-77
2022/12/21 08:21:54;;;;;;;2.77;2.10;;;9.70;99.90;;;;;;5051810;28;20745;-78
2022/12/21 08:24:20;;;;;;;2.00;1.70;;;9.60;99.90;;;;;;5070139;28;20199;-78
2022/12/21 08:26:45;;;;;;;2.80;1.50;;;9.60;99.90;;;;;;5053233;28;20203;-78
2022/12/21 08:29:13;;;;;;;2.00;1.90;;;9.50;99.90;;;;;;5071388;28;20181;-78
2022/12/21 08:31:39;;;;;;;3.53;2.17;;;9.40;99.90;;;;;;5052779;28;20184;-78
2022/12/21 08:34:05;;;;;;;2.80;2.17;;;9.50;99.90;;;;;;5070783;28;21021;-78
2022/12/21 08:36:31;;;;;;;1.73;1.63;;;9.50;99.90;;;;;;5035960;28;20476;-77
2022/12/21 08:38:57;;;;;;;9.00;2.27;;;9.40;99.90;;;;;;5036135;28;20421;-78
2022/12/21 08:41:23;;;;;;;3.93;2.27;;;9.60;99.90;;;;;;5036032;28;20183;-77
2022/12/21 08:43:48;;;;;;;2.17;1.87;;;9.50;99.90;;;;;;5052989;28;20563;-77
2022/12/21 08:46:14;;;;;;;2.57;2.13;;;9.40;99.90;;;;;;5052474;28;20222;-77
2022/12/21 08:48:40;;;;;;;4.40;2.20;;;9.30;99.90;;;;;;5035352;28;20219;-78
2022/12/21 08:51:07;;;;;;;3.10;1.90;;;9.40;99.90;;;;;;5070090;28;20780;-77
2022/12/21 08:53:33;;;;;;;2.50;2.30;;;9.30;99.90;;;;;;5069711;28;20438;-77
2022/12/21 08:55:59;;;;;;;4.07;1.93;;;9.30;99.90;;;;;;5070017;28;21008;-78
2022/12/21 08:58:24;;;;;;;2.17;1.97;;;9.30;99.90;;;;;;5070662;28;20414;-78
2022/12/21 09:00:52;;;;;;;3.93;2.40;;;9.40;99.90;;;;;;5052268;28;20191;-77
2022/12/21 09:03:18;;;;;;;1.70;1.60;;;9.40;99.90;;;;;;5070865;28;20898;-77
2022/12/21 09:05:45;;;;;;;2.53;2.33;;;9.30;99.90;;;;;;5070455;28;20467;-76
2022/12/21 09:08:11;;;;;;;8.90;2.00;;;9.30;99.90;;;;;;5069536;28;20520;-76
2022/12/21 09:10:37;;;;;;;2.07;1.87;;;9.30;99.90;;;;;;5069302;28;20422;-77
2022/12/21 09:13:03;;;;;;;3.63;2.23;;;9.30;99.90;;;;;;5069791;28;20442;-78
2022/12/21 09:15:28;;;;;;;4.10;2.30;;;9.40;99.90;;;;;;5052008;28;20200;-77
2022/12/21 09:17:54;;;;;;;3.03;2.13;;;9.30;99.90;;;;;;5035232;28;20228;-77
2022/12/21 09:20:20;;;;;;;2.97;2.30;;;9.40;99.90;;;;;;5051897;28;20191;-76
2022/12/21 09:22:45;;;;;;;2.53;2.10;;;9.30;99.90;;;;;;5034898;28;20445;-77
2022/12/21 09:25:12;;;;;;;2.70;2.20;;;9.20;99.90;;;;;;5050856;28;20191;-76
2022/12/21 09:27:37;;;;;;;5.47;2.20;;;9.30;99.90;;;;;;5050328;28;20245;-78
2022/12/21 09:30:04;;;;;;;2.27;2.07;;;9.30;99.90;;;;;;5033097;28;21030;-76
2022/12/21 09:32:29;;;;;;;2.00;1.80;;;9.30;99.90;;;;;;5034548;28;20218;-76
2022/12/21 09:34:55;;;;;;;2.37;2.17;;;9.30;99.90;;;;;;5034969;28;20427;-77
2022/12/21 09:37:20;;;;;;;2.87;1.90;;;9.30;99.90;;;;;;5035097;28;20187;-77
2022/12/21 09:39:46;;;;;;;2.60;1.97;;;9.30;99.90;;;;;;5051670;28;20699;-77
2022/12/21 09:42:24;;;;;;;3.00;1.63;;;9.30;99.90;;;;;;5051528;28;20731;-77
2022/12/21 09:44:59;;;;;;;3.10;2.00;;;9.20;99.90;;;;;;5051339;28;20179;-78
2022/12/21 09:47:50;;;;;;;2.87;2.20;;;9.20;99.90;;;;;;5069763;28;20776;-77
2022/12/21 09:50:26;;;;;;;2.30;1.93;;;9.20;99.90;;;;;;5050758;28;21177;-76
2022/12/21 09:53:01;;;;;;;2.70;2.20;;;9.30;99.90;;;;;;5068618;28;20976;-76
2022/12/21 09:55:33;;;;;;;4.17;2.07;;;9.20;99.90;;;;;;5068037;28;20472;-77
2022/12/21 09:58:03;;;;;;;1.80;1.70;;;9.20;99.90;;;;;;5050644;28;20413;-76
2022/12/21 10:00:33;;;;;;;2.03;1.93;;;9.20;99.90;;;;;;5068531;28;20409;-76
2022/12/21 10:03:10;;;;;;;2.00;1.90;;;9.40;99.90;;;;;;5068616;28;20578;-76
2022/12/21 10:05:58;;;;;;;3.10;2.00;;;9.30;99.90;;;;;;5068313;28;20872;-76
2022/12/21 10:08:47;;;;;;;1.77;1.67;;;9.30;99.90;;;;;;5067942;28;20419;-77
2022/12/21 10:11:18;;;;;;;1.60;1.50;;;9.40;99.90;;;;;;5068034;28;20421;-77
2022/12/21 10:14:09;;;;;;;2.63;1.50;;;9.50;99.90;;;;;;5067950;28;20854;-78
2022/12/21 10:16:49;;;;;;;3.27;1.80;;;9.50;99.90;;;;;;5068047;28;20568;-76
2022/12/21 10:19:22;;;;;;;2.80;1.90;;;9.50;99.90;;;;;;5049783;28;20872;-77
2022/12/21 10:22:08;;;;;;;2.90;1.47;;;9.50;99.90;;;;;;5067766;28;20414;-77
2022/12/21 10:24:42;;;;;;;4.50;2.07;;;9.50;99.90;;;;;;5049483;28;20426;-77
2022/12/21 10:27:20;;;;;;;1.37;1.27;;;9.40;99.90;;;;;;5067841;28;20444;-77
2022/12/21 10:29:51;;;;;;;1.40;1.30;;;9.60;99.90;;;;;;5067859;28;20921;-76
2022/12/21 10:32:17;;;;;;;1.67;1.30;;;9.50;99.90;;;;;;5068315;28;20425;-77
2022/12/21 10:34:47;;;;;;;5.90;1.73;;;9.50;99.90;;;;;;5050961;28;20439;-78
2022/12/21 10:37:19;;;;;;;3.23;2.30;;;9.60;99.90;;;;;;5071830;28;20464;-77
2022/12/21 10:40:03;;;;;;;2.57;1.27;;;9.60;99.90;;;;;;5093735;28;20431;-76
2022/12/21 10:42:49;;;;;;;1.43;1.33;;;9.60;99.90;;;;;;5097066;28;20441;-76
2022/12/21 10:45:16;;;;;;;2.40;1.40;;;9.60;99.90;;;;;;5080309;28;20451;-77
2022/12/21 10:47:44;;;;;;;1.50;1.40;;;9.60;99.90;;;;;;5097673;28;20539;-77
2022/12/21 10:50:26;;;;;;;1.97;1.30;;;9.70;99.90;;;;;;5077196;28;20478;-76
2022/12/21 10:52:54;;;;;;;1.10;1.00;;;9.70;99.90;;;;;;5074929;28;20445;-77
2022/12/21 10:55:24;;;;;;;1.30;1.20;;;9.80;99.90;;;;;;5079506;28;20560;-76
2022/12/21 10:58:12;;;;;;;1.60;1.50;;;9.70;99.90;;;;;;5074730;28;20433;-77
2022/12/21 11:00:50;;;;;;;1.50;1.20;;;9.70;99.90;;;;;;5072994;28;20504;-77
2022/12/21 11:03:23;;;;;;;1.47;1.20;;;9.70;99.90;;;;;;5054495;28;20481;-76
2022/12/21 11:05:49;;;;;;;1.00;0.90;;;9.80;99.90;;;;;;5071709;28;20428;-76
2022/12/21 11:08:15;;;;;;;2.63;1.50;;;9.90;99.90;;;;;;5053767;28;20445;-77
2022/12/21 11:10:52;;;;;;;1.27;1.00;;;9.90;99.90;;;;;;5053507;28;20613;-77
2022/12/21 11:13:20;;;;;;;1.30;1.20;;;10.00;99.90;;;;;;5053069;28;20206;-77
2022/12/21 11:16:09;;;;;;;1.63;0.80;;;10.00;99.90;;;;;;5036553;28;20526;-76
2022/12/21 11:19:01;;;;;;;1.83;0.90;;;10.10;99.90;;;;;;5053151;28;20516;-78
2022/12/21 11:21:44;;;;;;;1.37;1.07;;;10.20;99.90;;;;;;5049010;28;20429;-77
2022/12/21 11:24:20;;;;;;;2.60;1.03;;;10.20;99.90;;;;;;5070797;28;20490;-77
2022/12/21 11:27:14;;;;;;;1.57;1.20;;;10.30;99.90;;;;;;5070976;28;20942;-77
2022/12/21 11:29:45;;;;;;;1.83;1.73;;;10.30;99.90;;;;;;5070766;28;20441;-77
2022/12/21 11:32:13;;;;;;;2.53;2.23;;;10.30;99.90;;;;;;5071301;28;20495;-77
2022/12/21 11:34:52;;;;;;;2.23;1.33;;;10.30;99.90;;;;;;5070764;28;20474;-77
2022/12/21 11:37:31;;;;;;;3.10;1.80;;;10.20;99.90;;;;;;5070805;28;20430;-77
2022/12/21 11:40:06;;;;;;;2.63;1.73;;;10.30;99.90;;;;;;5070889;28;20790;-77
2022/12/21 11:42:32;;;;;;;2.40;1.73;;;10.30;99.90;;;;;;5052382;28;20489;-77
2022/12/21 11:45:17;;;;;;;1.30;1.20;;;10.30;99.90;;;;;;5071188;28;20426;-79
2022/12/21 11:48:15;;;;;;;1.60;1.50;;;10.40;99.90;;;;;;5070894;28;20789;-77
2022/12/21 11:50:52;;;;;;;1.77;1.67;;;10.50;99.90;;;;;;5070494;28;20417;-77
2022/12/21 11:53:18;;;;;;;1.60;1.50;;;10.60;99.90;;;;;;5069937;28;20471;-76
2022/12/21 11:56:20;;;;;;;2.10;1.90;;;10.60;99.90;;;;;;5071166;28;20914;-78
2022/12/21 11:58:54;;;;;;;9.13;6.60;;;10.70;99.90;;;;;;5073787;28;20224;-77
2022/12/21 12:01:44;;;;;;;2.53;2.23;;;10.90;99.90;;;;;;5054874;28;20455;-77
2022/12/21 12:04:28;;;;;;;0.93;0.80;;;11.10;99.90;;;;;;5070444;28;21049;-77
2022/12/21 12:07:03;;;;;;;2.00;0.93;;;11.20;99.90;;;;;;5056456;28;20431;-78
2022/12/21 12:09:53;;;;;;;1.10;1.00;;;11.20;99.90;;;;;;5074563;28;20972;-78
2022/12/21 12:12:38;;;;;;;1.17;0.83;;;11.40;99.90;;;;;;5054069;28;20421;-77
2022/12/21 12:15:28;;;;;;;1.10;0.87;;;11.50;99.90;;;;;;5070472;28;20902;-77
2022/12/21 12:18:10;;;;;;;1.20;1.10;;;11.50;99.90;;;;;;5070903;28;20418;-77
2022/12/21 12:20:55;;;;;;;1.93;0.97;;;11.40;99.90;;;;;;5071341;28;20495;-78
2022/12/21 12:23:29;;;;;;;1.60;1.00;;;11.40;99.90;;;;;;5070642;28;20549;-77
2022/12/21 12:26:03;;;;;;;1.10;0.80;;;11.50;99.90;;;;;;5070824;28;20437;-78
2022/12/21 12:28:50;;;;;;;1.40;1.00;;;11.50;99.90;;;;;;5053041;28;20459;-76
2022/12/21 12:31:23;;;;;;;1.40;0.80;;;11.60;99.90;;;;;;5069361;28;20422;-77
2022/12/21 12:34:04;;;;;;;0.83;0.73;;;11.50;99.90;;;;;;5068737;28;20450;-76
2022/12/21 12:36:35;;;;;;;1.57;1.00;;;11.60;99.90;;;;;;5068830;28;21352;-76
2022/12/21 12:39:20;;;;;;;2.63;1.20;;;11.60;99.90;;;;;;5050471;28;20431;-75
2022/12/21 12:42:08;;;;;;;2.10;1.20;;;11.70;99.90;;;;;;5050879;28;20452;-77
2022/12/21 12:45:15;;;;;;;2.53;1.00;;;11.60;99.90;;;;;;5069968;28;21259;-77
2022/12/21 12:47:48;;;;;;;2.30;1.60;;;11.70;99.90;;;;;;5024092;28;20419;-76
2022/12/21 12:50:21;;;;;;;2.63;1.00;;;11.60;99.90;;;;;;5068755;28;20775;-76
2022/12/21 12:53:19;;;;;;;1.20;0.90;;;11.60;99.90;;;;;;5068585;28;20434;-77
2022/12/21 12:56:04;;;;;;;1.10;0.90;;;11.60;99.90;;;;;;5050594;28;20467;-76
2022/12/21 12:58:52;;;;;;;1.20;1.10;;;11.60;99.90;;;;;;5051312;28;20448;-76
2022/12/21 13:01:23;;;;;;;2.30;1.00;;;11.70;99.90;;;;;;5068154;28;20411;-76
2022/12/21 13:04:10;;;;;;;1.40;0.97;;;11.70;99.90;;;;;;5068288;28;20475;-76
2022/12/21 13:06:46;;;;;;;1.30;0.93;;;11.70;99.90;;;;;;5036799;28;20571;-77
2022/12/21 13:09:33;;;;;;;2.90;1.17;;;11.70;99.90;;;;;;5068688;28;20911;-77
2022/12/21 13:12:52;;;;;;;1.77;1.40;;;11.70;99.90;;;;;;5050377;28;20583;-77
2022/12/21 13:15:41;;;;;;;1.53;1.43;;;11.60;99.90;;;;;;4967085;28;20899;-76
2022/12/21 13:18:16;;;;;;;8.17;0.90;;;11.50;99.90;;;;;;4967142;28;20427;-76
2022/12/21 13:20:45;;;;;;;2.73;1.50;;;11.60;99.90;;;;;;5033234;28;20421;-76
2022/12/21 13:23:35;;;;;;;1.27;0.93;;;11.70;99.90;;;;;;5068414;28;20429;-76
2022/12/21 13:26:09;;;;;;;2.80;0.90;;;11.70;99.90;;;;;;5068474;28;20497;-76
2022/12/21 13:28:49;;;;;;;1.53;1.00;;;11.70;99.90;;;;;;5050462;28;20864;-77
2022/12/21 13:31:17;;;;;;;1.73;0.80;;;11.70;99.90;;;;;;5068747;28;20484;-76